createdAt,value
2023-03-29T00:00:12.546Z,2.57
2023-03-29T00:02:40.897Z,2.50
2023-03-29T00:05:12.264Z,2.49
2023-03-29T00:07:41.177Z,2.42
2023-03-29T00:10:12.763Z,2.44
2023-03-29T00:12:42.125Z,2.50
2023-03-29T00:15:10.956Z,2.48
2023-03-29T00:17:38.912Z,2.47
2023-03-29T00:20:10.231Z,2.46
2023-03-29T00:22:39.775Z,2.56
2023-03-29T00:25:08.391Z,2.55
2023-03-29T00:27:38.239Z,2.54
2023-03-29T00:30:10.041Z,2.54
2023-03-29T00:32:39.181Z,2.57
2023-03-29T00:35:07.969Z,2.63
2023-03-29T00:37:36.806Z,2.65
2023-03-29T00:40:08.263Z,2.67
2023-03-29T00:42:38.439Z,2.65
2023-03-29T00:45:18.769Z,2.64
2023-03-29T00:47:51.603Z,2.63
2023-03-29T00:50:25.757Z,2.68
2023-03-29T00:53:00.857Z,2.70
2023-03-29T00:55:34.794Z,2.72
2023-03-29T00:58:07.353Z,2.72
2023-03-29T01:00:41.826Z,2.76
2023-03-29T01:03:15.250Z,2.90
2023-03-29T01:05:49.864Z,2.86
2023-03-29T01:08:25.635Z,2.91
2023-03-29T01:11:01.813Z,2.90
2023-03-29T01:13:42.260Z,2.89
2023-03-29T01:16:13.234Z,2.87
2023-03-29T01:18:41.905Z,2.84
2023-03-29T01:21:23.451Z,2.86
2023-03-29T01:24:11.075Z,2.80
2023-03-29T01:26:55.182Z,2.80
2023-03-29T01:29:33.080Z,2.78
2023-03-29T01:32:09.709Z,2.78
2023-03-29T01:34:45.931Z,2.80
2023-03-29T01:37:21.900Z,2.81
2023-03-29T01:39:49.876Z,2.77
2023-03-29T01:42:35.945Z,2.75
2023-03-29T01:45:20.597Z,2.79
2023-03-29T01:48:00.505Z,2.81
2023-03-29T01:50:42.268Z,2.80
2023-03-29T01:53:18.192Z,2.79
2023-03-29T01:55:52.393Z,2.77
2023-03-29T01:58:27.040Z,2.87
2023-03-29T02:00:56.786Z,2.87
2023-03-29T02:03:30.858Z,2.86
2023-03-29T02:06:02.046Z,2.85
2023-03-29T02:08:31.538Z,2.83
2023-03-29T02:10:59.816Z,2.85
2023-03-29T02:13:28.079Z,2.87
2023-03-29T02:15:59.671Z,2.82
2023-03-29T02:18:27.692Z,2.79
2023-03-29T02:20:58.904Z,2.79
2023-03-29T02:23:34.925Z,2.73
2023-03-29T02:26:06.589Z,2.77
2023-03-29T02:28:34.742Z,2.74
2023-03-29T02:31:13.116Z,2.75
2023-03-29T02:33:53.115Z,2.73
2023-03-29T02:36:29.393Z,2.72
2023-03-29T02:39:01.045Z,2.72
2023-03-29T02:41:29.931Z,2.75
2023-03-29T02:44:00.903Z,2.73
2023-03-29T02:46:30.763Z,2.71
2023-03-29T02:49:00.872Z,2.62
2023-03-29T02:51:34.308Z,2.64
2023-03-29T02:54:09.261Z,2.57
2023-03-29T02:56:44.781Z,2.65
2023-03-29T02:59:14.327Z,2.71
2023-03-29T03:01:43.594Z,2.65
2023-03-29T03:04:13.203Z,2.55
2023-03-29T03:06:42.134Z,2.47
2023-03-29T03:09:10.427Z,2.47
2023-03-29T03:11:38.392Z,2.45
2023-03-29T03:14:07.494Z,2.39
2023-03-29T03:16:36.078Z,2.40
2023-03-29T03:19:06.008Z,2.34
2023-03-29T03:21:35.099Z,2.33
2023-03-29T03:24:03.068Z,2.30
2023-03-29T03:26:30.993Z,2.26
2023-03-29T03:28:59.016Z,2.24
2023-03-29T03:31:28.266Z,2.36
2023-03-29T03:33:56.629Z,2.40
2023-03-29T03:36:26.387Z,2.35
2023-03-29T03:38:54.381Z,2.32
2023-03-29T03:41:22.684Z,2.36
2023-03-29T03:43:50.647Z,2.34
2023-03-29T03:46:19.305Z,2.47
2023-03-29T03:48:47.968Z,2.47
2023-03-29T03:51:15.940Z,2.45
2023-03-29T03:53:45.740Z,2.42
2023-03-29T03:56:14.081Z,2.38
2023-03-29T03:58:42.245Z,2.39
2023-03-29T04:01:10.312Z,2.42
2023-03-29T04:03:39.188Z,2.40
2023-03-29T04:06:07.727Z,2.37
2023-03-29T04:08:35.681Z,2.41
2023-03-29T04:11:05.410Z,2.50
2023-03-29T04:13:33.259Z,2.47
2023-03-29T04:16:01.851Z,2.41
2023-03-29T04:18:30.035Z,2.42
2023-03-29T04:20:58.201Z,2.41
2023-03-29T04:23:26.268Z,2.37
2023-03-29T04:25:56.587Z,2.51
2023-03-29T04:28:25.881Z,2.52
2023-03-29T04:30:53.844Z,2.42
2023-03-29T04:33:22.519Z,2.38
2023-03-29T04:35:50.679Z,2.42
2023-03-29T04:38:23.032Z,2.39
2023-03-29T04:40:53.726Z,2.42
2023-03-29T04:43:22.539Z,2.37
2023-03-29T04:45:51.822Z,2.47
2023-03-29T04:48:19.737Z,2.44
2023-03-29T04:50:48.372Z,2.46
2023-03-29T04:53:20.002Z,2.45
2023-03-29T04:55:48.311Z,2.49
2023-03-29T04:58:16.471Z,2.49
2023-03-29T05:00:45.386Z,2.49
2023-03-29T05:03:15.276Z,2.57
2023-03-29T05:05:43.181Z,2.57
2023-03-29T05:08:12.202Z,2.62
2023-03-29T05:10:44.396Z,2.69
2023-03-29T05:13:15.292Z,2.73
2023-03-29T05:15:43.993Z,2.75
2023-03-29T05:18:12.000Z,2.76
2023-03-29T05:20:42.168Z,2.85
2023-03-29T05:23:10.475Z,2.95
2023-03-29T05:25:50.244Z,2.90
2023-03-29T05:28:20.945Z,2.91
2023-03-29T05:30:49.497Z,2.97
2023-03-29T05:33:17.585Z,3.07
2023-03-29T05:35:48.027Z,3.05
2023-03-29T05:38:16.104Z,3.03
2023-03-29T05:40:44.522Z,3.10
2023-03-29T05:43:13.189Z,3.18
2023-03-29T05:45:41.469Z,3.16
2023-03-29T05:48:11.618Z,3.25
2023-03-29T05:50:39.648Z,3.38
2023-03-29T05:53:09.484Z,3.37
2023-03-29T05:55:37.462Z,3.42
2023-03-29T05:58:05.412Z,3.55
2023-03-29T06:00:38.021Z,3.67
2023-03-29T06:03:17.988Z,4.15
2023-03-29T06:05:56.681Z,4.52
2023-03-29T06:08:28.640Z,4.79
2023-03-29T06:11:04.511Z,4.89
2023-03-29T06:13:34.744Z,5.00
2023-03-29T06:16:04.207Z,4.64
2023-03-29T06:18:32.360Z,4.43
2023-03-29T06:21:02.275Z,4.45
2023-03-29T06:23:32.182Z,4.37
2023-03-29T06:26:03.379Z,4.35
2023-03-29T06:28:31.800Z,4.50
2023-03-29T06:31:03.890Z,4.40
2023-03-29T06:33:34.186Z,4.30
2023-03-29T06:36:03.504Z,4.41
2023-03-29T06:38:34.045Z,4.56
2023-03-29T06:41:04.624Z,4.58
2023-03-29T06:43:38.279Z,4.71
2023-03-29T06:46:11.607Z,4.78
2023-03-29T06:48:41.183Z,4.86
2023-03-29T06:51:09.916Z,4.88
2023-03-29T06:53:39.290Z,4.95
2023-03-29T06:56:09.337Z,5.01
2023-03-29T06:58:37.911Z,5.19
2023-03-29T07:01:07.127Z,5.03
2023-03-29T07:03:38.625Z,5.22
2023-03-29T07:06:11.879Z,5.21
2023-03-29T07:08:49.819Z,5.14
2023-03-29T07:11:18.837Z,5.23
2023-03-29T07:13:51.009Z,5.29
2023-03-29T07:16:22.559Z,5.36
2023-03-29T07:18:53.412Z,5.29
2023-03-29T07:21:21.469Z,5.46
2023-03-29T07:23:53.350Z,5.45
2023-03-29T07:26:28.669Z,5.75
2023-03-29T07:28:58.785Z,5.99
2023-03-29T07:31:29.342Z,6.13
2023-03-29T07:33:57.572Z,5.97
2023-03-29T07:36:28.536Z,6.16
2023-03-29T07:39:01.825Z,6.01
2023-03-29T07:41:29.942Z,6.18
2023-03-29T07:43:58.889Z,6.15
2023-03-29T07:46:27.102Z,6.50
2023-03-29T07:48:56.684Z,6.61
2023-03-29T07:51:26.912Z,6.54
2023-03-29T07:53:55.080Z,6.74
2023-03-29T07:56:24.770Z,6.72
2023-03-29T07:58:52.647Z,6.65
2023-03-29T08:01:22.914Z,6.28
2023-03-29T08:03:50.942Z,6.38
2023-03-29T08:06:19.182Z,6.32
2023-03-29T08:08:48.440Z,6.25
2023-03-29T08:11:16.394Z,6.33
2023-03-29T08:13:46.282Z,6.39
2023-03-29T08:16:14.678Z,6.31
2023-03-29T08:18:42.755Z,6.24
2023-03-29T08:21:11.093Z,6.04
2023-03-29T08:23:39.186Z,6.00
2023-03-29T08:26:08.672Z,5.93
2023-03-29T08:28:38.116Z,6.06
2023-03-29T08:31:11.218Z,6.18
2023-03-29T08:33:39.436Z,6.12
2023-03-29T08:36:08.433Z,6.15
2023-03-29T08:38:39.444Z,6.42
2023-03-29T08:41:39.910Z,6.48
2023-03-29T08:44:28.080Z,6.60
2023-03-29T08:47:10.069Z,7.11
2023-03-29T08:49:43.930Z,7.39
2023-03-29T08:52:23.839Z,7.44
2023-03-29T08:54:57.172Z,7.52
2023-03-29T08:57:32.979Z,7.34
2023-03-29T09:00:06.896Z,7.42
2023-03-29T09:02:37.433Z,7.42
2023-03-29T09:05:20.405Z,7.08
2023-03-29T09:07:48.737Z,7.42
2023-03-29T09:10:19.366Z,7.53
2023-03-29T09:13:17.651Z,7.38
2023-03-29T09:15:56.801Z,7.53
2023-03-29T09:18:39.928Z,7.82
2023-03-29T09:21:21.496Z,7.96
2023-03-29T09:24:30.623Z,8.07
2023-03-29T09:27:10.073Z,8.51
2023-03-29T09:30:04.619Z,8.49
2023-03-29T09:32:42.333Z,8.26
2023-03-29T09:35:22.754Z,8.10
2023-03-29T09:37:54.896Z,8.33
2023-03-29T09:40:29.595Z,8.35
2023-03-29T09:42:59.238Z,8.59
2023-03-29T09:45:30.638Z,8.72
2023-03-29T09:48:12.525Z,8.97
2023-03-29T09:50:51.196Z,8.97
2023-03-29T09:53:30.468Z,9.06
2023-03-29T09:55:58.899Z,8.81
2023-03-29T09:58:32.810Z,9.02
2023-03-29T10:01:08.733Z,8.84
2023-03-29T10:03:41.376Z,8.51
2023-03-29T10:06:15.689Z,8.62
2023-03-29T10:08:51.367Z,8.44
2023-03-29T10:11:24.660Z,9.08
2023-03-29T10:13:57.432Z,9.21
2023-03-29T10:16:31.234Z,9.74
2023-03-29T10:18:59.969Z,9.40
2023-03-29T10:21:32.414Z,9.30
2023-03-29T10:24:00.412Z,9.18
2023-03-29T10:26:33.816Z,9.01
2023-03-29T10:29:08.344Z,8.96
2023-03-29T10:31:41.491Z,9.05
2023-03-29T10:34:16.468Z,8.86
2023-03-29T10:36:54.174Z,8.97
2023-03-29T10:39:34.310Z,9.49
2023-03-29T10:42:05.572Z,9.59
2023-03-29T10:44:38.744Z,9.43
2023-03-29T10:47:20.232Z,9.83
2023-03-29T10:49:56.944Z,9.86
2023-03-29T10:52:31.706Z,9.62
2023-03-29T10:55:02.684Z,9.52
2023-03-29T10:57:51.148Z,9.67
2023-03-29T11:00:33.272Z,10.00
2023-03-29T11:03:25.003Z,10.20
2023-03-29T11:06:03.041Z,9.97
2023-03-29T11:08:52.544Z,10.29
2023-03-29T11:12:12.168Z,10.69
2023-03-29T11:15:01.551Z,10.60
2023-03-29T11:17:52.700Z,10.35
2023-03-29T11:20:31.115Z,10.79
2023-03-29T11:23:15.034Z,10.56
2023-03-29T11:26:04.015Z,10.65
2023-03-29T11:28:43.354Z,11.03
2023-03-29T11:31:24.875Z,11.20
2023-03-29T11:34:14.267Z,10.90
2023-03-29T11:36:55.078Z,10.44
2023-03-29T11:39:39.426Z,10.61
2023-03-29T11:42:18.150Z,10.64
2023-03-29T11:44:54.630Z,11.36
2023-03-29T11:47:28.997Z,11.04
2023-03-29T11:50:04.782Z,11.05
2023-03-29T11:52:40.729Z,11.27
2023-03-29T11:55:18.081Z,11.31
2023-03-29T11:57:56.617Z,11.26
2023-03-29T12:00:30.407Z,11.42
2023-03-29T12:03:08.259Z,11.26
2023-03-29T12:05:44.267Z,11.49
2023-03-29T12:08:21.203Z,11.36
2023-03-29T12:10:58.353Z,11.49
2023-03-29T12:13:34.263Z,11.55
2023-03-29T12:16:12.446Z,11.27
2023-03-29T12:18:45.398Z,11.06
2023-03-29T12:21:45.809Z,10.51
2023-03-29T12:24:20.615Z,10.60
2023-03-29T12:27:26.125Z,10.96
2023-03-29T12:30:54.132Z,11.03
2023-03-29T12:34:37.521Z,10.52
2023-03-29T12:37:43.845Z,10.41
2023-03-29T12:40:17.946Z,10.37
2023-03-29T12:42:57.630Z,10.63
2023-03-29T12:46:28.917Z,10.89
2023-03-29T12:49:13.386Z,10.72
2023-03-29T12:51:56.345Z,10.80
2023-03-29T12:54:49.910Z,10.85
2023-03-29T12:57:56.359Z,10.77
2023-03-29T13:01:25.306Z,11.21
2023-03-29T13:04:18.950Z,11.32
2023-03-29T13:07:05.997Z,11.48
2023-03-29T13:10:28.102Z,11.35
2023-03-29T13:12:57.863Z,10.69
2023-03-29T13:15:29.291Z,11.06
2023-03-29T13:18:20.177Z,10.94
2023-03-29T13:21:02.843Z,10.89
2023-03-29T13:23:45.876Z,11.06
2023-03-29T13:27:05.832Z,10.67
2023-03-29T13:34:01.377Z,11.12
2023-03-29T13:40:05.871Z,11.13
2023-03-29T13:42:50.259Z,10.52
2023-03-29T13:45:30.864Z,10.68
2023-03-29T13:48:30.711Z,10.53
2023-03-29T13:51:27.640Z,10.56
2023-03-29T13:54:03.015Z,10.79
2023-03-29T13:56:54.470Z,11.10
2023-03-29T13:59:45.901Z,11.27
2023-03-29T14:02:37.233Z,10.65
2023-03-29T14:05:14.354Z,10.77
2023-03-29T14:07:50.131Z,10.89
2023-03-29T14:10:31.274Z,10.73
2023-03-29T14:13:06.512Z,10.86
2023-03-29T14:15:58.493Z,10.85
2023-03-29T14:18:32.960Z,10.79
2023-03-29T14:21:02.868Z,10.56
2023-03-29T14:23:43.639Z,10.25
2023-03-29T14:26:27.421Z,10.15
2023-03-29T14:29:27.106Z,10.21
2023-03-29T14:32:07.908Z,10.32
2023-03-29T14:34:36.166Z,10.37
2023-03-29T14:37:05.612Z,10.36
2023-03-29T14:39:36.804Z,10.39
2023-03-29T14:42:14.452Z,10.39
2023-03-29T14:44:44.366Z,10.52
2023-03-29T14:47:22.094Z,10.56
2023-03-29T14:49:51.341Z,10.67
2023-03-29T14:52:21.052Z,10.98
2023-03-29T14:54:58.008Z,10.67
2023-03-29T14:57:37.851Z,10.70
2023-03-29T15:00:27.872Z,10.73
2023-03-29T15:02:58.794Z,10.86
2023-03-29T15:05:38.610Z,10.67
2023-03-29T15:08:09.966Z,10.61
2023-03-29T15:10:43.002Z,10.47
2023-03-29T15:13:28.525Z,10.47
2023-03-29T15:16:04.388Z,10.63
2023-03-29T15:18:41.719Z,10.57
2023-03-29T15:21:13.919Z,10.53
2023-03-29T15:23:51.882Z,10.52
2023-03-29T15:26:26.292Z,10.36
2023-03-29T15:29:03.835Z,10.35
2023-03-29T15:31:36.831Z,10.29
2023-03-29T15:34:09.250Z,10.46
2023-03-29T15:36:43.174Z,10.75
2023-03-29T15:39:14.322Z,10.88
2023-03-29T15:41:45.019Z,10.82
2023-03-29T15:44:17.252Z,10.83
2023-03-29T15:46:45.433Z,10.81
2023-03-29T15:49:14.208Z,10.73
2023-03-29T15:51:42.731Z,10.58
2023-03-29T15:54:10.908Z,10.59
2023-03-29T15:56:52.285Z,10.96
2023-03-29T15:59:20.489Z,10.98
2023-03-29T16:01:49.592Z,11.03
2023-03-29T16:04:22.002Z,11.08
2023-03-29T16:06:53.541Z,11.03
2023-03-29T16:09:23.929Z,10.97
2023-03-29T16:11:55.737Z,10.95
2023-03-29T16:14:28.185Z,10.87
2023-03-29T16:16:59.348Z,10.93
2023-03-29T16:19:29.973Z,10.90
2023-03-29T16:22:01.392Z,10.92
2023-03-29T16:24:34.459Z,10.95
2023-03-29T16:27:05.395Z,10.92
2023-03-29T16:29:33.464Z,10.91
2023-03-29T16:32:05.501Z,10.90
2023-03-29T16:34:35.867Z,10.74
2023-03-29T16:49:48.555Z,10.61
2023-03-29T16:52:17.598Z,10.53
2023-03-29T16:54:47.365Z,10.52
2023-03-29T16:57:16.482Z,10.50
2023-03-29T16:59:47.660Z,10.55
2023-03-29T17:02:15.849Z,10.45
2023-03-29T17:04:46.424Z,10.42
2023-03-29T17:07:15.710Z,10.43
2023-03-29T17:09:46.354Z,10.40
2023-03-29T17:12:15.298Z,10.41
2023-03-29T17:14:47.777Z,10.41
2023-03-29T17:17:16.281Z,10.43
2023-03-29T17:19:49.004Z,10.36
2023-03-29T17:22:17.054Z,10.33
2023-03-29T17:24:45.031Z,10.35
2023-03-29T17:27:12.949Z,10.30
2023-03-29T17:29:40.875Z,10.37
2023-03-29T17:32:08.861Z,10.30
2023-03-29T17:34:37.263Z,10.37
2023-03-29T17:37:06.717Z,10.33
2023-03-29T17:39:37.492Z,10.34
2023-03-29T17:42:06.461Z,10.33
2023-03-29T17:44:34.487Z,10.33
2023-03-29T17:47:02.857Z,10.27
2023-03-29T17:49:31.786Z,10.25
2023-03-29T17:52:00.418Z,10.24
2023-03-29T17:54:32.111Z,10.26
2023-03-29T17:57:01.603Z,10.20
2023-03-29T17:59:30.962Z,10.20
2023-03-29T18:02:02.458Z,10.19
2023-03-29T18:04:30.580Z,10.20
2023-03-29T18:07:00.267Z,10.22
2023-03-29T18:09:31.043Z,10.13
2023-03-29T18:12:00.349Z,10.19
2023-03-29T18:14:29.024Z,10.21
2023-03-29T18:16:58.767Z,10.23
2023-03-29T18:19:28.072Z,10.18
2023-03-29T18:21:57.491Z,10.16
2023-03-29T18:24:27.864Z,10.13
2023-03-29T18:26:58.460Z,10.10
2023-03-29T18:29:26.905Z,10.08
2023-03-29T18:31:55.749Z,10.14
2023-03-29T18:34:24.152Z,10.10
2023-03-29T18:36:53.619Z,10.06
2023-03-29T18:39:21.949Z,10.03
2023-03-29T18:41:49.858Z,10.06
2023-03-29T18:44:22.348Z,10.00
2023-03-29T18:46:50.331Z,9.96
2023-03-29T18:49:19.051Z,9.93
2023-03-29T18:51:47.562Z,9.98
2023-03-29T18:54:15.589Z,10.00
2023-03-29T18:56:43.635Z,10.05
2023-03-29T18:59:11.585Z,10.33
2023-03-29T19:01:41.916Z,10.29
2023-03-29T19:04:12.026Z,10.35
2023-03-29T19:06:42.903Z,10.29
2023-03-29T19:09:11.550Z,10.38
2023-03-29T19:11:39.594Z,10.26
2023-03-29T19:14:09.555Z,10.27
2023-03-29T19:16:41.476Z,10.29
2023-03-29T19:19:13.463Z,10.17
2023-03-29T19:21:42.749Z,10.13
2023-03-29T19:24:12.523Z,10.26
2023-03-29T19:26:41.330Z,10.25
2023-03-29T19:29:12.814Z,10.29
2023-03-29T19:31:40.866Z,10.09
2023-03-29T19:34:11.310Z,9.99
2023-03-29T19:36:39.657Z,9.99
2023-03-29T19:39:08.124Z,9.96
2023-03-29T19:41:36.043Z,9.91
2023-03-29T19:44:05.209Z,9.89
2023-03-29T19:46:33.317Z,9.85
2023-03-29T19:49:03.743Z,9.81
2023-03-29T19:51:34.345Z,9.82
2023-03-29T19:54:02.739Z,9.82
2023-03-29T19:56:30.671Z,9.88
2023-03-29T19:58:58.558Z,9.86
2023-03-29T20:01:27.244Z,9.83
2023-03-29T20:03:55.437Z,9.82
2023-03-29T20:06:23.497Z,9.79
2023-03-29T20:08:53.848Z,9.80
2023-03-29T20:11:24.144Z,9.76
2023-03-29T20:13:52.220Z,9.76
2023-03-29T20:16:24.233Z,9.76
2023-03-29T20:18:53.930Z,9.79
2023-03-29T20:21:21.839Z,9.81
2023-03-29T20:23:49.799Z,9.82
2023-03-29T20:26:18.994Z,9.80
2023-03-29T20:28:46.900Z,9.85
2023-03-29T20:31:14.891Z,9.84
2023-03-29T20:33:44.365Z,9.77
2023-03-29T20:36:13.378Z,9.75
2023-03-29T20:38:41.377Z,9.78
2023-03-29T20:41:10.771Z,9.82
2023-03-29T20:43:41.249Z,9.78
2023-03-29T20:46:22.590Z,9.85
2023-03-29T20:48:54.067Z,9.79
2023-03-29T20:51:22.562Z,9.79
2023-03-29T20:53:50.648Z,9.78
2023-03-29T20:56:18.940Z,9.82
2023-03-29T20:58:48.255Z,9.87
2023-03-29T21:01:16.228Z,9.81
2023-03-29T21:03:44.194Z,9.74
2023-03-29T21:06:13.958Z,9.76
2023-03-29T21:08:42.472Z,9.76
2023-03-29T21:11:12.957Z,9.74
2023-03-29T21:13:40.985Z,9.74
2023-03-29T21:16:11.060Z,9.74
2023-03-29T21:18:40.497Z,9.71
2023-03-29T21:21:08.877Z,9.74
2023-03-29T21:23:37.005Z,9.72
2023-03-29T21:26:07.274Z,9.69
2023-03-29T21:28:35.482Z,9.74
2023-03-29T21:31:06.282Z,9.74
2023-03-29T21:33:37.325Z,9.68
2023-03-29T21:36:06.146Z,9.64
2023-03-29T21:38:34.135Z,9.68
2023-03-29T21:41:02.537Z,9.66
2023-03-29T21:43:30.662Z,9.62
2023-03-29T21:45:59.176Z,9.63
2023-03-29T21:48:27.191Z,9.59
2023-03-29T21:50:56.496Z,9.61
2023-03-29T21:53:25.094Z,9.62
2023-03-29T21:55:53.687Z,9.62
2023-03-29T21:58:21.768Z,9.63
2023-03-29T22:00:50.046Z,9.67
2023-03-29T22:03:18.226Z,9.60
2023-03-29T22:05:59.496Z,9.63
2023-03-29T22:08:27.590Z,9.63
2023-03-29T22:10:57.115Z,9.64
2023-03-29T22:13:26.865Z,9.62
2023-03-29T22:15:59.118Z,9.69
2023-03-29T22:18:30.067Z,9.67
2023-03-29T22:20:59.450Z,9.68
2023-03-29T22:23:27.750Z,9.72
2023-03-29T22:25:55.604Z,9.69
2023-03-29T22:28:23.486Z,9.66
2023-03-29T22:30:51.433Z,9.66
2023-03-29T22:33:19.303Z,9.70
2023-03-29T22:35:47.181Z,9.72
2023-03-29T22:38:16.508Z,9.65
2023-03-29T22:40:44.483Z,9.63
2023-03-29T22:43:12.526Z,9.68
2023-03-29T22:45:40.587Z,9.61
2023-03-29T22:48:08.483Z,9.65
2023-03-29T22:50:36.608Z,9.65
2023-03-29T22:53:04.916Z,9.62
2023-03-29T22:55:34.212Z,9.64
2023-03-29T22:58:02.114Z,9.60
2023-03-29T23:00:31.566Z,9.61
2023-03-29T23:02:59.932Z,9.61
2023-03-29T23:05:27.907Z,9.60
2023-03-29T23:07:56.152Z,9.63
2023-03-29T23:10:28.743Z,9.58
2023-03-29T23:13:08.564Z,9.55
2023-03-29T23:15:38.044Z,9.52
2023-03-29T23:18:06.965Z,9.54
2023-03-29T23:20:34.983Z,9.44
2023-03-29T23:23:02.892Z,9.39
2023-03-29T23:25:31.360Z,9.38
2023-03-29T23:28:00.869Z,9.35
2023-03-29T23:30:30.829Z,9.34
2023-03-29T23:33:00.005Z,9.30
2023-03-29T23:35:27.962Z,9.29
2023-03-29T23:37:55.922Z,9.31
2023-03-29T23:40:24.470Z,9.46
2023-03-29T23:42:52.941Z,9.37
2023-03-29T23:45:22.215Z,9.39
2023-03-29T23:47:50.142Z,9.40
2023-03-29T23:50:18.397Z,9.36
2023-03-29T23:52:47.045Z,9.33
2023-03-29T23:55:16.352Z,9.36
2023-03-29T23:57:44.355Z,9.35
